• Join FlightAware (Why Join?)
  • Login
  • US Flag 
03:55PM EST


 

Airport Tracker/Info


-or-


 

Live Flight TrackerFlight Track Log ✈ FLG3729 ✈ 21-Jun-2013 ✈ KALB - KDTW

Flight Track Log - Related Links

Times and Time Zones

All times are in EDT time to prevent confusion due to time zone crossing. See the FLG3729 flight status page for this flight to view local times or setup timezone preferences in your user account.

Time Position Orientation Groundspeed Altitude Reporting Facility
EDT Latitude Longitude Course Direction KTS MPH feet Rate Location/Type
06:00AM 42.7736 -73.8064 304° West 174 200 1,200  Level Boston Center
06:00AM 42.7964 -73.8181 339° North 166 191 2,100 1,800 Climbing Boston Center
06:01AM 42.8311 -73.8756 309° West 209 241 4,000 2,040 Climbing Boston Center
06:02AM 42.8719 -73.9444 309° West 244 281 6,200 2,460 Climbing Boston Center
06:03AM 42.9106 -74.0133 307° West 252 290 8,900 2,400 Climbing Boston Center
06:04AM 42.8465 -74.4122 283° West  Level FlightAware Approximate
06:04AM 42.9531 -74.1108 301° West 264 304 11,100  Level Boston Center
06:05AM 42.8680 -74.5361 304° West  Level FlightAware Approximate
06:05AM 42.9639 -74.2161 278° West 291 335 12,500  Level Boston Center
06:06AM 42.9783 -74.3528 278° West 333 383 14,100 1,500 Climbing Boston Center
06:07AM 42.9908 -74.4697 278° West 343 395 15,500 1,500 Climbing Boston Center
06:08AM 43.0069 -74.6150 279° West 354 407 17,100 1,320 Climbing Boston Center
06:09AM 43.0172 -74.7289 277° West 349 402 18,200 1,140 Climbing Boston Center
06:10AM 43.0331 -74.8658 279° West 349 402 19,400 1,080 Climbing Boston Center
06:11AM 43.0428 -74.9942 276° West 349 402 20,400 1,020 Climbing Boston Center
06:12AM 43.0564 -75.1311 278° West 354 407 21,500 780 Climbing Boston Center
06:13AM 43.0717 -75.2797 278° West 354 407 22,000 480 Climbing Boston Center
06:14AM 43.0867 -75.4197 278° West 361 415 22,500 480 Climbing Boston Center
06:15AM 43.1017 -75.5656 278° West 378 435 23,000 480 Climbing Boston Center
06:16AM 43.1164 -75.7086 278° West 384 442 23,500 480 Climbing Boston Center
06:17AM 43.1286 -75.8572 276° West 389 448 24,000 540 Climbing Boston Center
06:18AM 43.1408 -76.0031 277° West 389 448 24,600 600 Climbing Boston Center
06:20AM 43.1547 -76.2597 274° West 392 451 25,800 660 Climbing Cleveland Center
06:21AM 43.1433 -76.4031 264° West 392 451 26,600 600 Climbing Cleveland Center
06:22AM 43.1297 -76.5489 263° West 392 451 27,100 480 Climbing Cleveland Center
06:23AM 43.1183 -76.6978 264° West 392 451 27,600 420 Climbing Cleveland Center
06:24AM 43.1022 -76.8467 262° West 392 451 28,000 180 Climbing Cleveland Center
06:25AM 43.0903 -76.9953 264° West 392 451 28,000  Level Cleveland Center
06:26AM 43.0761 -77.1494 263° West 397 457 28,000  Level Cleveland Center
06:27AM 43.0619 -77.3067 263° West 409 471 28,000  Level Cleveland Center
06:28AM 43.0475 -77.4636 263° West 419 482 28,000  Level Cleveland Center
06:29AM 43.0331 -77.6236 263° West 424 488 28,000  Level Cleveland Center
06:30AM 43.0183 -77.7833 263° West 429 494 28,000  Level Cleveland Center
06:31AM 43.0031 -77.9400 262° West 429 494 28,000  Level Cleveland Center
06:32AM 42.9842 -78.1197 262° West 429 494 28,000  Level Cleveland Center
06:33AM 42.9686 -78.2764 262° West 429 494 28,000  Level Cleveland Center
06:34AM 42.9508 -78.4389 262° West 429 494 28,000  Level Cleveland Center
06:35AM 42.9372 -78.5981 263° West 429 494 28,000  Level Cleveland Center
06:36AM 42.9147 -78.7575 259° West 429 494 28,000  Level Cleveland Center
06:37AM 42.8922 -78.9169 259° West 429 494 28,000  Level Cleveland Center
06:38AM 42.8672 -79.0761 258° West 429 494 28,000  Level Cleveland Center
06:39AM 42.8442 -79.2353 259° West 429 494 28,000  Level Cleveland Center
06:40AM 42.8208 -79.3972 259° West 429 494 28,000  Level Cleveland Center
06:41AM 42.7994 -79.5561 260° West 429 494 28,000  Level Cleveland Center
06:42AM 42.7739 -79.7178 258° West 434 499 28,000  Level Cleveland Center
06:43AM 42.7539 -79.8792 260° West 434 499 28,000  Level Cleveland Center
06:44AM 42.7425 -80.0489 265° West 434 499 28,000  Level Cleveland Center
06:45AM 42.7369 -80.2128 267° West 440 506 28,000  Level Cleveland Center
06:46AM 42.7289 -80.3711 266° West 440 506 28,000  Level Cleveland Center
06:47AM 42.7228 -80.5381 267° West 440 506 28,000  Level Cleveland Center
06:48AM 42.7144 -80.6989 266° West 440 506 28,000 -240 Level Cleveland Center
06:49AM 42.7078 -80.8658 267° West 448 516 27,600 -780 Descending Cleveland Center
06:50AM 42.6906 -81.0267 262° West 438 504 26,500 -1,200 Descending Cleveland Center
06:51AM 42.6733 -81.1903 262° West 438 504 25,200 -1,260 Descending Cleveland Center
06:52AM 42.6556 -81.3456 261° West 432 497 24,000 -600 Descending Cleveland Center
06:53AM 42.6378 -81.4947 261° West 421 484 24,000  Level Cleveland Center
06:54AM 42.6200 -81.6272 260° West 415 478 24,000 -660 Level Cleveland Center
06:55AM 42.6019 -81.7819 261° West 415 478 22,700 -1,920 Descending Cleveland Center
06:56AM 42.5836 -81.9283 260° West 409 471 20,200 -2,400 Descending Cleveland Center
06:57AM 42.5672 -82.0661 261° West 399 459 17,900 -2,100 Descending Cleveland Center
06:58AM 42.5489 -82.2064 260° West 387 445 16,000 -2,160 Descending Cleveland Center
06:59AM 42.5367 -82.3133 261° West 357 411 14,400 -2,100 Descending Cleveland Center
07:00AM 42.5228 -82.4200 260° West 335 386 12,800 -1,140 Descending Cleveland Center
07:01AM 42.5058 -82.5519 260° West 292 336 12,100 -540 Descending Cleveland Center
07:02AM 42.4686 -82.6492 243° Southwest 290 334 11,700 -1,140 Descending Cleveland Center
07:03AM 42.4317 -82.7408 241° Southwest 283 326 9,900 -1,800 Descending Cleveland Center
07:04AM 42.3964 -82.8436 245° Southwest 255 293 8,000 -1,800 Descending Cleveland Center
07:05AM 42.4006 -82.9394 273° West 256 295 6,200 -1,020 Descending Cleveland Center
07:06AM 42.3903 -83.0292 261° West 263 303 6,100 -360 Descending Cleveland Center
07:07AM 42.3739 -83.1239 257° West 261 300 5,600 -960 Descending Cleveland Center
07:08AM 42.3614 -83.2133 259° West 233 268 4,200 -1,380 Descending Cleveland Center